Time;durP1;ratioP1;P1;durP2;ratioP2;P2;SDS_P1;SDS_P2;PMS_P1;PMS_P2;Temp;Humidity;BMP_temperature;BMP_pressure;BME280_temperature;BME280_humidity;BME280_pressure;Samples;Min_cycle;Max_cycle;Signal;HPM_P1;HPM_P2
2020/12/14 00:01:02;;;;;;;11.77;6.32;;;5.00;94.90;;;;;;5012968;28;20468;-73
2020/12/14 00:03:28;;;;;;;13.55;6.60;;;4.80;95.10;;;;;;5014982;28;20178;-73
2020/12/14 00:05:54;;;;;;;9.80;5.73;;;4.80;95.20;;;;;;5026481;28;20211;-73
2020/12/14 00:08:19;;;;;;;10.60;5.97;;;4.70;95.40;;;;;;5034161;28;20289;-73
2020/12/14 00:10:45;;;;;;;11.10;5.80;;;4.60;95.60;;;;;;5033277;28;20209;-74
2020/12/14 00:13:11;;;;;;;12.77;6.00;;;4.50;95.70;;;;;;5038319;28;20189;-73
2020/12/14 00:15:36;;;;;;;9.80;5.40;;;4.40;95.80;;;;;;5035477;28;20209;-72
2020/12/14 00:18:02;;;;;;;11.40;5.80;;;4.40;96.10;;;;;;5034838;28;20212;-72
2020/12/14 00:20:28;;;;;;;13.10;6.40;;;4.40;96.10;;;;;;5033102;28;20209;-73
2020/12/14 00:22:54;;;;;;;11.97;6.17;;;4.30;96.30;;;;;;5032454;28;20189;-74
2020/12/14 00:25:20;;;;;;;13.18;6.50;;;4.30;96.40;;;;;;5033402;28;20185;-71
2020/12/14 00:27:46;;;;;;;9.90;5.20;;;4.20;96.50;;;;;;5033014;28;20263;-70
2020/12/14 00:30:12;;;;;;;16.37;8.10;;;4.20;96.80;;;;;;5033687;28;20640;-71
2020/12/14 00:32:38;;;;;;;16.43;8.50;;;4.20;96.90;;;;;;5033277;28;20424;-71
2020/12/14 00:35:03;;;;;;;16.97;8.27;;;4.20;96.90;;;;;;5031972;28;20217;-73
2020/12/14 00:37:29;;;;;;;16.27;7.47;;;4.20;97.10;;;;;;5033037;28;20266;-72
2020/12/14 00:39:55;;;;;;;14.67;7.50;;;4.20;97.30;;;;;;5031775;28;20441;-73
2020/12/14 00:42:21;;;;;;;13.70;7.07;;;4.20;97.40;;;;;;5017917;28;20482;-70
2020/12/14 00:44:46;;;;;;;15.67;7.50;;;4.20;97.50;;;;;;5035937;28;20190;-72
2020/12/14 00:47:12;;;;;;;15.17;7.77;;;4.20;97.50;;;;;;5036613;28;20329;-73
2020/12/14 00:49:38;;;;;;;14.90;7.23;;;4.20;97.60;;;;;;5015411;28;20190;-73
2020/12/14 00:52:04;;;;;;;18.17;8.43;;;4.20;97.60;;;;;;5024149;28;20193;-71
2020/12/14 00:54:31;;;;;;;18.30;9.45;;;4.20;97.60;;;;;;5036083;28;20557;-73
2020/12/14 00:56:57;;;;;;;16.67;10.00;;;4.20;97.50;;;;;;5026272;28;20198;-74
2020/12/14 00:59:23;;;;;;;13.90;8.10;;;4.30;97.50;;;;;;5034694;28;20298;-71
2020/12/14 01:01:52;;;;;;;14.20;7.97;;;4.30;97.30;;;;;;5025969;28;20205;-73
2020/12/14 01:04:20;;;;;;;15.65;7.85;;;4.30;97.20;;;;;;5040312;28;20260;-74
2020/12/14 01:06:46;;;;;;;12.20;7.57;;;4.30;97.10;;;;;;5034473;28;20213;-73
2020/12/14 01:09:11;;;;;;;13.30;7.00;;;4.30;97.00;;;;;;5046424;28;20189;-73
2020/12/14 01:11:37;;;;;;;12.57;7.20;;;4.30;96.70;;;;;;5034916;28;20471;-73
2020/12/14 01:14:03;;;;;;;14.83;7.10;;;4.30;96.60;;;;;;5035378;28;20467;-73
2020/12/14 01:16:29;;;;;;;14.68;7.78;;;4.20;96.80;;;;;;5033599;28;20637;-73
2020/12/14 01:18:55;;;;;;;15.80;7.80;;;4.20;96.90;;;;;;5015491;28;20293;-72
2020/12/14 01:21:21;;;;;;;13.60;7.20;;;4.20;96.80;;;;;;5024987;28;20696;-72
2020/12/14 01:23:48;;;;;;;14.43;7.90;;;4.20;96.70;;;;;;5033976;28;20184;-73
2020/12/14 01:26:13;;;;;;;14.50;7.95;;;4.20;96.70;;;;;;5033021;28;20551;-72
2020/12/14 01:28:39;;;;;;;13.80;8.00;;;4.20;96.60;;;;;;5018300;28;20188;-71
2020/12/14 01:31:05;;;;;;;16.70;7.93;;;4.10;96.60;;;;;;5032285;28;20245;-71
2020/12/14 01:33:30;;;;;;;14.07;7.33;;;4.20;96.70;;;;;;5032057;28;20185;-74
2020/12/14 01:35:56;;;;;;;14.23;7.57;;;4.10;96.70;;;;;;5032385;28;20212;-72
2020/12/14 01:38:22;;;;;;;13.67;7.70;;;4.10;96.70;;;;;;5031815;28;20224;-73
2020/12/14 01:40:48;;;;;;;15.13;7.60;;;4.10;96.90;;;;;;5033500;28;20443;-71
2020/12/14 01:43:14;;;;;;;18.07;7.83;;;4.10;96.90;;;;;;5029246;28;20581;-73
2020/12/14 01:45:39;;;;;;;13.23;7.07;;;4.10;97.00;;;;;;5023980;28;20260;-72
2020/12/14 01:48:07;;;;;;;17.00;8.43;;;4.10;96.90;;;;;;5031502;28;20199;-72
2020/12/14 01:50:35;;;;;;;18.50;8.90;;;4.10;96.80;;;;;;5020435;28;21068;-74
2020/12/14 01:53:02;;;;;;;16.95;8.30;;;4.10;96.70;;;;;;5017315;28;20213;-73
2020/12/14 01:55:39;;;;;;;19.98;9.02;;;4.00;96.70;;;;;;5020123;28;20209;-73
2020/12/14 01:58:05;;;;;;;13.10;7.00;;;4.00;96.70;;;;;;5025844;28;20178;-71
2020/12/14 02:00:30;;;;;;;16.20;7.03;;;4.00;96.60;;;;;;5026145;28;20934;-73
2020/12/14 02:02:56;;;;;;;13.70;6.80;;;4.00;96.60;;;;;;5030874;28;20268;-73
2020/12/14 02:05:22;;;;;;;12.90;7.30;;;4.00;96.60;;;;;;5031977;28;20607;-72
2020/12/14 02:07:48;;;;;;;15.60;8.63;;;4.00;96.70;;;;;;5032521;28;20599;-72
2020/12/14 02:10:14;;;;;;;11.27;6.20;;;4.00;96.50;;;;;;5030620;28;20216;-73
2020/12/14 02:12:40;;;;;;;14.35;7.05;;;4.00;96.60;;;;;;5037970;28;20193;-73
2020/12/14 02:15:06;;;;;;;15.65;7.25;;;3.90;96.60;;;;;;5039984;28;20213;-73
2020/12/14 02:17:32;;;;;;;12.00;7.10;;;3.90;96.70;;;;;;5042781;28;20542;-73
2020/12/14 02:19:58;;;;;;;14.27;7.25;;;3.90;96.80;;;;;;5035739;28;20208;-73
2020/12/14 02:22:25;;;;;;;11.20;6.30;;;3.80;97.00;;;;;;5032404;28;20185;-73
2020/12/14 02:25:03;;;;;;;12.68;6.65;;;3.80;97.20;;;;;;5031696;28;20189;-73
2020/12/14 02:27:31;;;;;;;13.70;7.10;;;3.80;97.20;;;;;;5032006;28;20268;-72
2020/12/14 02:29:57;;;;;;;14.85;7.70;;;3.80;97.20;;;;;;5030155;28;20288;-70
2020/12/14 02:32:25;;;;;;;13.23;6.90;;;3.80;97.20;;;;;;5029789;28;20184;-74
2020/12/14 02:34:52;;;;;;;13.52;6.78;;;3.80;97.10;;;;;;5028216;28;20235;-73
2020/12/14 02:37:24;;;;;;;15.65;6.95;;;3.80;97.00;;;;;;5029632;28;20598;-74
2020/12/14 02:39:50;;;;;;;20.63;8.38;;;3.70;97.00;;;;;;5027916;28;20246;-72
2020/12/14 02:42:21;;;;;;;14.20;7.20;;;3.70;97.00;;;;;;5018661;28;20252;-74
2020/12/14 02:44:47;;;;;;;15.63;7.00;;;3.60;97.10;;;;;;5028286;28;20426;-73
2020/12/14 02:47:13;;;;;;;16.35;6.82;;;3.70;97.30;;;;;;5029711;28;20189;-70
2020/12/14 02:49:40;;;;;;;17.50;9.15;;;3.70;97.30;;;;;;5029184;28;20204;-72
2020/12/14 02:52:08;;;;;;;14.40;6.57;;;3.70;97.20;;;;;;5028708;28;20355;-72
2020/12/14 02:54:34;;;;;;;11.68;7.28;;;3.60;97.30;;;;;;5033859;28;20185;-73
2020/12/14 02:57:00;;;;;;;12.48;6.18;;;3.60;97.40;;;;;;5030827;28;20869;-72
2020/12/14 02:59:26;;;;;;;17.47;6.70;;;3.70;97.40;;;;;;5021860;28;20221;-71
2020/12/14 03:01:52;;;;;;;14.73;6.80;;;3.60;97.30;;;;;;5010028;28;20448;-73
2020/12/14 03:04:19;;;;;;;14.07;6.53;;;3.60;97.40;;;;;;5008606;28;20186;-72
2020/12/14 03:06:46;;;;;;;12.52;6.40;;;3.60;97.40;;;;;;5026017;28;21146;-72
2020/12/14 03:09:13;;;;;;;16.67;6.60;;;3.60;97.40;;;;;;5016030;28;20191;-73
2020/12/14 03:11:39;;;;;;;14.00;7.20;;;3.60;97.50;;;;;;5029298;28;20201;-72
2020/12/14 03:14:06;;;;;;;12.75;6.55;;;3.60;97.40;;;;;;5029653;28;20193;-71
2020/12/14 03:16:32;;;;;;;14.57;7.05;;;3.50;97.50;;;;;;5029520;28;20209;-73
2020/12/14 03:18:57;;;;;;;16.00;7.37;;;3.60;97.60;;;;;;5027798;28;20192;-72
2020/12/14 03:21:23;;;;;;;11.83;6.67;;;3.60;97.60;;;;;;5016804;28;20467;-74
2020/12/14 03:23:49;;;;;;;13.07;7.20;;;3.60;97.50;;;;;;5022918;28;20252;-71
2020/12/14 03:26:18;;;;;;;13.10;6.67;;;3.60;97.50;;;;;;5009713;28;20186;-74
2020/12/14 03:28:43;;;;;;;11.23;6.25;;;3.60;97.40;;;;;;5029740;28;20668;-74
2020/12/14 03:31:10;;;;;;;15.50;6.93;;;3.60;97.30;;;;;;5030966;28;20213;-72
2020/12/14 03:33:36;;;;;;;12.48;6.05;;;3.60;97.30;;;;;;5038930;28;20318;-72
2020/12/14 03:36:03;;;;;;;15.20;6.50;;;3.60;97.20;;;;;;5035364;28;20273;-73
2020/12/14 03:38:28;;;;;;;13.23;6.75;;;3.60;97.30;;;;;;5032832;28;20213;-73
2020/12/14 03:40:54;;;;;;;13.10;6.90;;;3.50;97.40;;;;;;5033650;28;20691;-73
2020/12/14 03:43:20;;;;;;;11.80;6.73;;;3.50;97.40;;;;;;5027611;28;20448;-74
2020/12/14 03:45:48;;;;;;;14.43;6.27;;;3.40;97.50;;;;;;5033820;28;20253;-73
2020/12/14 03:48:15;;;;;;;12.70;6.40;;;3.40;97.60;;;;;;5028931;28;20230;-72
2020/12/14 03:50:43;;;;;;;13.40;6.60;;;3.40;97.70;;;;;;5024639;28;20202;-71
2020/12/14 03:53:09;;;;;;;13.32;6.32;;;3.40;97.70;;;;;;5023422;28;20268;-72
2020/12/14 03:55:35;;;;;;;14.15;7.07;;;3.30;97.80;;;;;;5037419;28;20304;-73
2020/12/14 03:58:01;;;;;;;12.77;6.20;;;3.30;97.90;;;;;;5032933;28;20182;-73
2020/12/14 04:00:26;;;;;;;11.70;6.30;;;3.30;98.00;;;;;;5031927;28;20710;-72
2020/12/14 04:02:52;;;;;;;11.30;6.00;;;3.30;97.90;;;;;;5024655;28;20204;-73
2020/12/14 04:05:18;;;;;;;13.60;6.87;;;3.30;98.00;;;;;;5034513;28;20208;-72
2020/12/14 04:07:44;;;;;;;15.17;7.40;;;3.30;98.10;;;;;;5042870;28;20185;-72
2020/12/14 04:10:09;;;;;;;13.07;6.60;;;3.30;98.00;;;;;;5046098;28;20209;-73
2020/12/14 04:12:35;;;;;;;12.67;7.60;;;3.20;97.90;;;;;;5047310;28;20200;-74
2020/12/14 04:15:01;;;;;;;14.90;7.53;;;3.20;97.90;;;;;;5043832;28;20974;-74
2020/12/14 04:17:27;;;;;;;15.73;7.63;;;3.20;97.90;;;;;;5039458;28;21012;-71
2020/12/14 04:19:52;;;;;;;15.50;7.40;;;3.20;98.00;;;;;;5037797;28;20209;-71
2020/12/14 04:22:18;;;;;;;14.00;6.77;;;3.20;98.00;;;;;;5031908;28;20190;-73
2020/12/14 04:24:44;;;;;;;13.37;6.80;;;3.20;97.90;;;;;;5019125;28;20213;-73
2020/12/14 04:27:09;;;;;;;10.30;6.00;;;3.10;97.90;;;;;;5030735;28;20272;-71
2020/12/14 04:29:35;;;;;;;14.53;6.20;;;3.10;97.90;;;;;;5016270;28;20256;-72
2020/12/14 04:32:01;;;;;;;13.60;6.03;;;3.10;98.00;;;;;;5021593;28;20185;-71
2020/12/14 04:34:27;;;;;;;9.30;5.90;;;3.10;98.00;;;;;;5034234;28;20693;-72
2020/12/14 04:36:53;;;;;;;14.10;6.57;;;3.10;98.10;;;;;;5013513;28;20288;-72
2020/12/14 04:39:19;;;;;;;17.63;6.73;;;3.10;98.10;;;;;;5020822;28;20193;-72
2020/12/14 04:41:45;;;;;;;13.00;6.82;;;3.10;98.20;;;;;;5032500;28;20946;-71
2020/12/14 04:44:12;;;;;;;11.03;5.63;;;3.00;98.20;;;;;;5031739;28;20251;-72
2020/12/14 04:46:38;;;;;;;11.38;5.80;;;3.00;98.20;;;;;;5031996;28;20186;-72
2020/12/14 04:49:06;;;;;;;11.45;6.13;;;3.00;98.00;;;;;;5030007;28;20652;-73
2020/12/14 04:51:35;;;;;;;11.85;5.65;;;3.00;98.00;;;;;;5031678;28;20217;-74
2020/12/14 04:54:01;;;;;;;16.08;6.07;;;3.00;98.10;;;;;;5034256;28;20189;-73
2020/12/14 04:56:28;;;;;;;17.98;6.25;;;2.90;98.10;;;;;;5033081;28;20212;-73
2020/12/14 04:58:56;;;;;;;12.77;6.50;;;2.90;98.30;;;;;;5033185;28;20196;-74
2020/12/14 05:01:23;;;;;;;15.18;6.38;;;2.80;98.40;;;;;;5034411;28;20251;-73
2020/12/14 05:03:48;;;;;;;10.02;5.53;;;2.90;98.50;;;;;;5034686;28;20189;-74
2020/12/14 05:06:14;;;;;;;13.20;5.70;;;2.90;98.70;;;;;;5035361;28;20193;-73
2020/12/14 05:08:41;;;;;;;10.70;5.75;;;2.90;98.80;;;;;;5034679;28;20177;-74
2020/12/14 05:11:08;;;;;;;11.75;5.82;;;3.00;98.80;;;;;;5034249;28;20279;-73
2020/12/14 05:13:34;;;;;;;9.32;5.43;;;3.00;98.80;;;;;;5034292;28;20675;-75
2020/12/14 05:16:00;;;;;;;11.00;5.43;;;3.00;98.80;;;;;;5033984;28;20213;-74
2020/12/14 05:18:27;;;;;;;9.27;4.65;;;3.00;98.80;;;;;;5035441;28;20416;-73
2020/12/14 05:21:07;;;;;;;8.95;4.72;;;3.10;98.70;;;;;;5045987;28;20201;-74
2020/12/14 05:23:33;;;;;;;8.70;4.75;;;3.10;98.30;;;;;;5032216;28;20185;-74
2020/12/14 05:26:05;;;;;;;9.80;5.07;;;3.00;98.10;;;;;;5033078;28;20189;-73
2020/12/14 05:28:31;;;;;;;14.13;6.07;;;3.00;98.10;;;;;;5035318;28;20189;-74
2020/12/14 05:30:57;;;;;;;11.77;5.90;;;3.00;98.00;;;;;;5049249;28;20201;-73
2020/12/14 05:33:25;;;;;;;11.27;5.37;;;3.00;98.20;;;;;;5039292;28;20208;-74
2020/12/14 05:35:51;;;;;;;14.63;7.15;;;3.00;98.20;;;;;;5040720;28;20460;-74
2020/12/14 05:38:26;;;;;;;11.00;5.53;;;3.00;98.30;;;;;;5041148;28;20185;-73
2020/12/14 05:40:53;;;;;;;12.73;6.35;;;3.00;98.40;;;;;;5037720;28;20333;-74
2020/12/14 05:43:21;;;;;;;15.55;6.38;;;3.00;98.30;;;;;;5032167;28;20631;-73
2020/12/14 05:45:50;;;;;;;12.60;6.43;;;3.00;98.30;;;;;;5030802;28;20200;-74
2020/12/14 05:48:28;;;;;;;11.60;6.38;;;3.00;98.30;;;;;;5020036;28;20908;-73
2020/12/14 05:51:04;;;;;;;9.48;5.97;;;3.00;98.30;;;;;;5033625;28;20213;-72
2020/12/14 05:53:32;;;;;;;14.07;6.65;;;3.00;98.10;;;;;;5044276;28;20198;-74
2020/12/14 05:55:59;;;;;;;13.40;6.47;;;2.90;98.00;;;;;;5045788;28;20288;-74
2020/12/14 05:58:28;;;;;;;12.65;6.00;;;2.90;98.10;;;;;;5021241;28;20260;-74
2020/12/14 06:00:55;;;;;;;14.38;6.55;;;2.90;98.20;;;;;;5043413;28;20295;-72
2020/12/14 06:03:25;;;;;;;12.80;6.80;;;2.90;98.20;;;;;;5030536;28;20189;-73
2020/12/14 06:05:59;;;;;;;12.43;6.10;;;3.00;98.20;;;;;;5038115;28;20185;-75
2020/12/14 06:08:39;;;;;;;13.30;7.18;;;3.00;98.20;;;;;;5031816;28;20194;-74
2020/12/14 06:11:05;;;;;;;13.48;6.38;;;2.90;98.10;;;;;;5017469;28;20240;-75
2020/12/14 06:13:32;;;;;;;12.83;6.37;;;3.00;98.10;;;;;;5029938;28;20217;-74
2020/12/14 06:16:01;;;;;;;14.48;6.40;;;3.00;98.10;;;;;;5038603;28;20200;-74
2020/12/14 06:18:33;;;;;;;14.73;7.95;;;3.00;98.10;;;;;;5050313;28;20616;-74
2020/12/14 06:21:00;;;;;;;15.05;8.45;;;3.00;98.10;;;;;;5038518;28;20709;-73
2020/12/14 06:23:37;;;;;;;17.42;8.10;;;3.00;98.00;;;;;;5035747;28;20189;-73
2020/12/14 06:26:07;;;;;;;17.90;7.90;;;3.00;98.00;;;;;;5029632;28;20730;-73
2020/12/14 06:28:34;;;;;;;15.20;7.75;;;3.00;98.00;;;;;;5031849;28;20186;-74
2020/12/14 06:31:01;;;;;;;15.65;8.30;;;3.00;98.00;;;;;;5031502;28;20292;-72
2020/12/14 06:33:41;;;;;;;14.63;8.02;;;3.10;98.00;;;;;;5026901;28;20190;-74
2020/12/14 06:36:20;;;;;;;18.65;8.27;;;3.10;98.00;;;;;;5012555;28;20252;-74
2020/12/14 06:38:48;;;;;;;16.17;7.65;;;3.20;97.90;;;;;;5031317;28;20260;-73
2020/12/14 06:41:20;;;;;;;19.50;8.05;;;3.30;97.80;;;;;;5031425;28;20315;-74
2020/12/14 06:43:48;;;;;;;15.95;8.00;;;3.30;97.60;;;;;;5031094;28;20934;-73
2020/12/14 06:46:25;;;;;;;16.33;7.82;;;3.30;97.40;;;;;;5029866;28;20196;-73
2020/12/14 06:48:52;;;;;;;17.42;8.57;;;3.40;97.30;;;;;;5030479;28;20192;-73
2020/12/14 06:51:18;;;;;;;23.77;9.02;;;3.50;97.10;;;;;;5044641;28;20281;-73
2020/12/14 06:53:48;;;;;;;20.23;8.30;;;3.50;97.00;;;;;;5045404;28;20189;-73
2020/12/14 06:56:37;;;;;;;17.50;7.75;;;3.60;96.60;;;;;;5037880;28;20463;-73
2020/12/14 06:59:27;;;;;;;19.48;7.93;;;3.60;96.20;;;;;;5030616;28;20264;-75
2020/12/14 07:02:00;;;;;;;21.52;9.40;;;3.60;96.00;;;;;;5010759;28;20194;-73
2020/12/14 07:04:29;;;;;;;17.33;7.55;;;3.70;96.00;;;;;;5016090;28;20216;-72
2020/12/14 07:07:23;;;;;;;20.40;9.48;;;3.70;95.90;;;;;;5034247;28;20185;-76
2020/12/14 07:09:49;;;;;;;20.05;9.25;;;3.80;95.60;;;;;;5034995;28;20195;-74
2020/12/14 07:12:18;;;;;;;20.90;8.70;;;3.70;95.50;;;;;;5026962;28;20193;-72
2020/12/14 07:14:44;;;;;;;20.98;9.85;;;3.80;95.60;;;;;;5028986;28;20696;-72
2020/12/14 07:17:27;;;;;;;21.83;9.07;;;3.90;95.40;;;;;;5028455;28;20750;-72
2020/12/14 07:20:03;;;;;;;21.00;8.43;;;3.90;95.10;;;;;;5028341;28;20193;-73
2020/12/14 07:22:46;;;;;;;22.50;8.85;;;3.90;95.00;;;;;;5029171;28;20181;-72
2020/12/14 07:25:21;;;;;;;19.58;8.68;;;3.90;95.10;;;;;;5028902;28;20183;-73
2020/12/14 07:27:47;;;;;;;20.13;9.55;;;3.90;95.00;;;;;;5028506;28;20189;-71
2020/12/14 07:30:13;;;;;;;18.87;8.73;;;3.80;95.00;;;;;;5028592;28;20250;-72
2020/12/14 07:32:39;;;;;;;19.05;8.38;;;3.80;95.00;;;;;;5029341;28;20622;-71
2020/12/14 07:35:07;;;;;;;21.83;9.85;;;3.90;94.80;;;;;;5029217;28;20192;-72
2020/12/14 07:37:33;;;;;;;21.73;9.70;;;4.00;94.60;;;;;;5029394;28;20185;-72
2020/12/14 07:40:00;;;;;;;21.90;10.27;;;4.00;94.50;;;;;;5027950;28;21024;-72
2020/12/14 07:42:30;;;;;;;20.98;10.20;;;4.00;94.50;;;;;;5028848;28;20201;-74
2020/12/14 07:45:19;;;;;;;17.73;8.48;;;4.00;94.40;;;;;;5028909;28;20720;-75
2020/12/14 07:47:50;;;;;;;19.48;10.07;;;4.00;94.30;;;;;;5027780;28;20919;-72
2020/12/14 07:50:16;;;;;;;19.65;8.80;;;4.00;94.40;;;;;;5027006;28;20209;-74
2020/12/14 07:52:42;;;;;;;23.07;10.67;;;4.00;94.40;;;;;;5029195;28;20210;-71
2020/12/14 07:55:10;;;;;;;19.23;8.88;;;4.00;94.30;;;;;;5028937;28;20552;-73
2020/12/14 07:57:38;;;;;;;19.42;9.35;;;4.10;94.40;;;;;;5028910;28;20196;-73
2020/12/14 08:00:10;;;;;;;21.83;9.43;;;4.10;94.20;;;;;;5026500;28;20248;-73
2020/12/14 08:02:37;;;;;;;21.75;9.55;;;4.10;94.30;;;;;;5030039;28;20185;-72
2020/12/14 08:05:05;;;;;;;20.33;9.13;;;4.10;94.40;;;;;;5027823;28;20218;-75
2020/12/14 08:07:44;;;;;;;21.20;8.50;;;4.30;94.10;;;;;;5026804;28;20196;-72
2020/12/14 08:10:10;;;;;;;20.08;8.88;;;4.30;93.90;;;;;;5025776;28;20284;-71
2020/12/14 08:12:38;;;;;;;18.38;8.15;;;4.40;93.90;;;;;;5028267;28;20177;-72
2020/12/14 08:15:14;;;;;;;19.50;10.13;;;4.40;93.70;;;;;;5027489;28;20189;-71
2020/12/14 08:17:40;;;;;;;26.30;10.80;;;4.50;93.40;;;;;;5029172;28;20188;-73
2020/12/14 08:20:22;;;;;;;19.85;9.48;;;4.40;93.30;;;;;;5032797;28;20201;-73
2020/12/14 08:22:48;;;;;;;18.30;9.35;;;4.50;93.00;;;;;;5036570;28;20209;-73
2020/12/14 08:25:21;;;;;;;24.90;9.70;;;4.60;92.90;;;;;;5036037;28;20216;-72
2020/12/14 08:27:58;;;;;;;16.52;8.25;;;4.60;92.80;;;;;;5035296;28;20185;-73
2020/12/14 08:30:25;;;;;;;16.67;8.77;;;4.70;92.80;;;;;;5033100;28;20208;-73
2020/12/14 08:33:10;;;;;;;22.73;9.38;;;4.70;92.80;;;;;;5032013;28;20216;-73
2020/12/14 08:35:41;;;;;;;24.25;9.80;;;4.70;92.90;;;;;;5021341;28;20219;-70
2020/12/14 08:38:15;;;;;;;19.73;8.82;;;4.80;92.90;;;;;;5030473;28;20691;-71
2020/12/14 08:40:54;;;;;;;23.20;11.10;;;4.80;92.80;;;;;;5022214;28;20634;-74
2020/12/14 08:43:21;;;;;;;20.92;9.35;;;4.80;92.80;;;;;;5031834;28;20196;-73
2020/12/14 08:46:16;;;;;;;18.08;9.20;;;4.80;92.80;;;;;;5028339;28;20239;-70
2020/12/14 08:48:56;;;;;;;27.20;11.30;;;4.80;92.80;;;;;;5019264;28;20185;-73
2020/12/14 08:51:31;;;;;;;23.85;10.50;;;4.90;92.70;;;;;;5029009;28;20207;-73
2020/12/14 08:54:19;;;;;;;19.65;9.40;;;4.90;92.20;;;;;;5019616;28;20630;-74
2020/12/14 08:56:46;;;;;;;22.23;9.57;;;4.90;91.80;;;;;;5018562;28;20297;-76
2020/12/14 08:59:19;;;;;;;21.30;10.00;;;5.00;91.90;;;;;;5011506;28;20182;-74
2020/12/14 09:02:05;;;;;;;20.00;9.77;;;5.10;91.80;;;;;;5015677;28;20233;-76
2020/12/14 09:04:35;;;;;;;19.23;9.37;;;5.10;91.50;;;;;;5031315;28;20712;-75
2020/12/14 09:07:01;;;;;;;26.33;10.10;;;5.20;91.50;;;;;;5039827;28;20427;-75
2020/12/14 09:09:32;;;;;;;23.60;10.47;;;5.10;91.40;;;;;;5025823;28;20431;-75
2020/12/14 09:11:59;;;;;;;20.52;10.70;;;5.20;91.40;;;;;;5025291;28;20279;-75
2020/12/14 09:14:28;;;;;;;20.53;9.30;;;5.30;91.20;;;;;;5042520;28;20240;-73
2020/12/14 09:16:59;;;;;;;21.90;10.48;;;5.30;91.20;;;;;;5029089;28;20510;-75
2020/12/14 09:19:31;;;;;;;20.10;10.13;;;5.30;90.90;;;;;;5015025;28;20974;-74
2020/12/14 09:21:58;;;;;;;22.30;9.65;;;5.40;90.70;;;;;;5025950;28;20462;-75
2020/12/14 09:24:26;;;;;;;23.73;9.53;;;5.30;90.10;;;;;;5024774;28;20575;-74
2020/12/14 09:26:54;;;;;;;18.47;8.17;;;5.30;90.00;;;;;;5022054;28;20452;-73
2020/12/14 09:29:20;;;;;;;16.50;8.20;;;5.40;89.90;;;;;;5025626;28;20435;-74
2020/12/14 09:31:50;;;;;;;17.70;9.73;;;5.40;89.70;;;;;;5014999;28;20217;-74
2020/12/14 09:34:16;;;;;;;24.37;9.93;;;5.50;90.00;;;;;;5028130;28;20246;-73
2020/12/14 09:36:42;;;;;;;23.33;10.17;;;5.60;90.10;;;;;;5027613;28;20467;-75
2020/12/14 09:39:08;;;;;;;25.53;9.03;;;5.60;90.40;;;;;;5025738;28;20189;-74
2020/12/14 09:41:33;;;;;;;19.23;8.33;;;5.70;90.10;;;;;;5012689;28;20304;-75
2020/12/14 09:43:59;;;;;;;20.47;9.37;;;5.80;90.20;;;;;;5027613;28;20231;-74
2020/12/14 09:46:27;;;;;;;20.00;9.60;;;5.90;89.90;;;;;;5026710;28;20315;-75
2020/12/14 09:48:54;;;;;;;18.10;8.87;;;6.00;89.70;;;;;;5014561;28;20676;-75
2020/12/14 09:51:20;;;;;;;15.32;7.90;;;6.10;89.00;;;;;;5025489;28;20467;-76
2020/12/14 09:53:46;;;;;;;19.87;9.20;;;6.10;89.20;;;;;;5014356;28;20194;-75
2020/12/14 09:56:11;;;;;;;17.43;8.23;;;6.20;88.70;;;;;;5006429;28;20521;-75
2020/12/14 09:58:37;;;;;;;16.47;8.30;;;6.30;88.30;;;;;;5007280;28;20439;-75
2020/12/14 10:01:03;;;;;;;18.00;8.60;;;6.40;87.70;;;;;;5007098;28;20206;-74
2020/12/14 10:03:29;;;;;;;13.07;6.83;;;6.50;87.10;;;;;;5018580;28;20474;-75
2020/12/14 10:05:55;;;;;;;14.93;7.13;;;6.60;86.60;;;;;;5023870;28;20435;-75
2020/12/14 10:08:20;;;;;;;14.20;7.53;;;6.80;84.90;;;;;;5023297;28;20245;-74
2020/12/14 10:10:49;;;;;;;15.80;8.07;;;7.00;83.30;;;;;;5025559;28;20593;-74
2020/12/14 10:13:14;;;;;;;14.83;7.80;;;7.10;83.00;;;;;;5027615;28;20193;-74
2020/12/14 10:15:40;;;;;;;12.77;6.97;;;7.40;82.50;;;;;;5026061;28;20467;-74
2020/12/14 10:18:06;;;;;;;12.60;6.63;;;7.50;81.70;;;;;;5026387;28;20788;-72
2020/12/14 10:20:32;;;;;;;14.53;6.97;;;7.60;80.00;;;;;;5026102;28;20216;-72
2020/12/14 10:22:57;;;;;;;12.80;6.63;;;7.70;79.60;;;;;;5014756;28;20268;-73
2020/12/14 10:25:24;;;;;;;13.93;6.10;;;7.90;78.70;;;;;;5024608;28;20203;-74
2020/12/14 10:27:51;;;;;;;12.37;6.30;;;8.00;78.00;;;;;;5024851;28;20208;-73
2020/12/14 10:30:17;;;;;;;11.40;6.20;;;8.10;77.70;;;;;;5023735;28;20457;-73
2020/12/14 10:32:44;;;;;;;14.60;6.33;;;8.40;76.80;;;;;;5013739;28;20424;-75
2020/12/14 10:35:10;;;;;;;10.30;5.60;;;8.50;76.10;;;;;;5024704;28;20428;-73
2020/12/14 10:37:35;;;;;;;19.63;6.80;;;8.60;75.40;;;;;;5013436;28;20447;-74
2020/12/14 10:40:04;;;;;;;14.20;6.40;;;8.70;75.10;;;;;;5025895;28;20209;-74
2020/12/14 10:42:31;;;;;;;12.67;6.20;;;8.80;74.80;;;;;;5025728;28;20743;-75
2020/12/14 10:44:58;;;;;;;11.07;5.60;;;8.90;74.80;;;;;;5026212;28;20431;-73
2020/12/14 10:47:24;;;;;;;9.80;5.17;;;8.90;73.70;;;;;;5014027;28;20540;-76
2020/12/14 10:49:50;;;;;;;9.30;5.33;;;8.90;73.00;;;;;;5020542;28;20934;-75
2020/12/14 10:52:16;;;;;;;13.57;6.03;;;8.90;73.90;;;;;;5016997;28;20454;-75
2020/12/14 10:54:41;;;;;;;12.10;5.90;;;9.00;73.60;;;;;;5003335;28;20476;-74
2020/12/14 10:57:07;;;;;;;10.10;5.30;;;9.00;73.70;;;;;;5021483;28;20229;-73
2020/12/14 10:59:33;;;;;;;13.03;6.50;;;9.10;73.00;;;;;;5016374;28;20193;-74
2020/12/14 11:01:59;;;;;;;9.73;5.23;;;9.10;73.30;;;;;;5009350;28;20217;-74
2020/12/14 11:04:25;;;;;;;13.87;6.03;;;9.20;73.30;;;;;;5019929;28;20716;-73
2020/12/14 11:06:50;;;;;;;11.70;5.50;;;9.20;73.20;;;;;;5030333;28;20193;-75
2020/12/14 11:09:16;;;;;;;11.47;5.90;;;9.30;73.60;;;;;;5029769;28;20216;-73
2020/12/14 11:11:42;;;;;;;11.57;5.80;;;9.30;73.00;;;;;;5027369;28;20209;-74
2020/12/14 11:14:08;;;;;;;13.07;5.20;;;9.40;73.20;;;;;;5027835;28;20185;-74
2020/12/14 11:16:38;;;;;;;13.20;5.30;;;9.50;73.60;;;;;;5030168;28;20205;-74
2020/12/14 11:19:04;;;;;;;8.90;4.80;;;9.60;72.70;;;;;;5022701;28;20419;-74
2020/12/14 11:21:30;;;;;;;10.80;5.60;;;9.70;73.20;;;;;;5034216;28;20448;-74
2020/12/14 11:23:55;;;;;;;9.43;5.60;;;9.80;73.50;;;;;;5030494;28;20869;-75
2020/12/14 11:26:21;;;;;;;9.23;5.47;;;9.90;72.30;;;;;;5013907;28;20197;-73
2020/12/14 11:28:47;;;;;;;12.37;6.07;;;10.10;71.60;;;;;;5011991;28;20193;-75
2020/12/14 11:31:16;;;;;;;11.43;5.70;;;10.20;70.50;;;;;;5023108;28;20205;-76
2020/12/14 11:33:42;;;;;;;10.50;5.80;;;10.30;70.20;;;;;;5009913;28;20586;-75
2020/12/14 11:36:08;;;;;;;13.83;6.00;;;10.40;69.70;;;;;;5009506;28;20535;-76
2020/12/14 11:38:34;;;;;;;11.27;5.70;;;10.40;69.10;;;;;;5012154;28;20217;-74
2020/12/14 11:40:59;;;;;;;14.97;6.50;;;10.50;68.90;;;;;;5027597;28;20209;-76
2020/12/14 11:43:25;;;;;;;9.97;5.80;;;10.40;68.80;;;;;;5028639;28;20225;-75
2020/12/14 11:45:51;;;;;;;10.63;6.00;;;10.30;69.90;;;;;;5028638;28;20193;-76
2020/12/14 11:48:18;;;;;;;9.57;5.40;;;10.30;71.10;;;;;;5028468;28;20432;-74
2020/12/14 11:50:43;;;;;;;11.07;5.67;;;10.30;71.40;;;;;;5027245;28;20259;-75
2020/12/14 11:53:09;;;;;;;10.70;5.77;;;10.30;71.40;;;;;;5029883;28;20423;-76
2020/12/14 11:55:39;;;;;;;8.87;5.40;;;10.20;72.00;;;;;;5014366;28;20205;-75
2020/12/14 11:58:05;;;;;;;9.60;5.53;;;10.30;72.30;;;;;;5012934;28;20232;-76
2020/12/14 12:00:32;;;;;;;13.20;5.73;;;10.30;72.70;;;;;;5012914;28;20444;-75
2020/12/14 12:02:57;;;;;;;12.90;6.93;;;10.30;72.40;;;;;;5013691;28;20495;-74
2020/12/14 12:05:24;;;;;;;9.33;5.87;;;10.40;72.40;;;;;;5019554;28;20428;-74
2020/12/14 12:07:49;;;;;;;10.13;5.37;;;10.40;72.30;;;;;;5033249;28;20240;-75
2020/12/14 12:10:16;;;;;;;10.60;5.70;;;10.40;72.30;;;;;;5018686;28;20441;-74
2020/12/14 12:12:42;;;;;;;10.87;5.77;;;10.40;72.00;;;;;;5025922;28;20231;-74
2020/12/14 12:15:08;;;;;;;10.17;5.60;;;10.40;71.80;;;;;;5012788;28;20428;-76
2020/12/14 12:17:34;;;;;;;8.93;5.07;;;10.50;71.00;;;;;;5013475;28;20186;-75
2020/12/14 12:20:00;;;;;;;9.70;6.07;;;10.60;71.40;;;;;;5020545;28;20479;-76
2020/12/14 12:22:25;;;;;;;9.67;5.07;;;10.70;71.30;;;;;;5026931;28;20412;-75
2020/12/14 12:24:51;;;;;;;9.60;4.87;;;10.90;70.70;;;;;;5013624;28;20182;-75
2020/12/14 12:27:17;;;;;;;7.87;4.40;;;11.00;70.40;;;;;;5014616;28;20190;-76
2020/12/14 12:29:43;;;;;;;9.23;5.00;;;11.10;70.80;;;;;;5013257;28;20554;-76
2020/12/14 12:32:08;;;;;;;9.37;4.70;;;11.20;69.40;;;;;;5014690;28;20182;-76
2020/12/14 12:34:34;;;;;;;13.83;6.30;;;11.30;68.80;;;;;;5013491;28;20193;-75
2020/12/14 12:37:01;;;;;;;9.40;4.70;;;11.50;68.00;;;;;;5025530;28;20214;-75
2020/12/14 12:39:27;;;;;;;11.33;5.53;;;11.50;68.20;;;;;;5024963;28;20496;-76
2020/12/14 12:41:54;;;;;;;8.63;4.73;;;11.60;67.20;;;;;;5032374;28;20436;-75
2020/12/14 12:44:21;;;;;;;10.10;5.30;;;11.60;67.70;;;;;;5031886;28;20543;-76
2020/12/14 12:46:48;;;;;;;9.83;4.77;;;11.70;67.70;;;;;;5031733;28;20415;-76
2020/12/14 12:49:13;;;;;;;12.50;6.00;;;11.70;67.60;;;;;;5018445;28;20428;-75